createdAt,value
2023-04-02T00:01:02.076Z,94703.8
2023-04-02T00:02:04.115Z,94705.2
2023-04-02T00:03:06.766Z,94707
2023-04-02T00:04:09.323Z,94715.8
2023-04-02T00:05:11.655Z,94720.1
2023-04-02T00:06:13.732Z,94716.5
2023-04-02T00:07:15.627Z,94717.4
2023-04-02T00:08:17.521Z,94723.1
2023-04-02T00:09:19.354Z,94717.2
2023-04-02T00:10:21.462Z,94721
2023-04-02T00:11:23.548Z,94724.2
2023-04-02T00:12:25.643Z,94719.9
2023-04-02T00:13:27.543Z,94718.4
2023-04-02T00:14:29.426Z,94721.1
2023-04-02T00:15:31.370Z,94719.1
2023-04-02T00:16:33.542Z,94719.5
2023-04-02T00:17:35.732Z,94722
2023-04-02T00:18:37.640Z,94723.6
2023-04-02T00:19:39.620Z,94715.7
2023-04-02T00:20:41.754Z,94720.6
2023-04-02T00:21:43.845Z,94719.8
2023-04-02T00:22:45.829Z,94720.5
2023-04-02T00:23:47.978Z,94712.6
2023-04-02T00:24:50.122Z,94715
2023-04-02T00:25:52.234Z,94715.1
2023-04-02T00:26:54.333Z,94714.6
2023-04-02T00:27:56.425Z,94714.1
2023-04-02T00:28:58.538Z,94718
2023-04-02T00:30:00.685Z,94711.3
2023-04-02T00:31:02.797Z,94709.7
2023-04-02T00:32:05.250Z,94711.9
2023-04-02T00:33:07.586Z,94713.9
2023-04-02T00:34:09.321Z,94713.1
2023-04-02T00:35:11.308Z,94718.5
2023-04-02T00:36:13.413Z,94717.3
2023-04-02T00:37:15.538Z,94719.8
2023-04-02T00:38:17.610Z,94719.3
2023-04-02T00:39:19.704Z,94716.1
2023-04-02T00:40:21.761Z,94720.4
2023-04-02T00:41:23.548Z,94717
2023-04-02T00:42:25.678Z,94720.2
2023-04-02T00:43:27.791Z,94714
2023-04-02T00:44:29.926Z,94716
2023-04-02T00:45:32.171Z,94715.7
2023-04-02T00:46:34.593Z,94723.6
2023-04-02T00:47:36.589Z,94722.1
2023-04-02T00:48:38.534Z,94720.6
2023-04-02T00:49:40.614Z,94713.6
2023-04-02T00:50:42.800Z,94720
2023-04-02T00:51:44.709Z,94721.3
2023-04-02T00:52:46.632Z,94722.9
2023-04-02T00:53:48.537Z,94731
2023-04-02T00:54:50.452Z,94727.2
2023-04-02T00:55:52.556Z,94724.1
2023-04-02T00:56:54.922Z,94723.5
2023-04-02T00:57:56.867Z,94721.8
2023-04-02T00:58:59.087Z,94726.6
2023-04-02T01:00:01.005Z,94726
2023-04-02T01:01:03.573Z,94728.5
2023-04-02T01:02:06.062Z,94727
2023-04-02T01:03:08.918Z,94729.8
2023-04-02T01:04:11.303Z,94726.2
2023-04-02T01:05:13.468Z,94731.4
2023-04-02T01:06:15.609Z,94732.8
2023-04-02T01:07:17.856Z,94730.1
2023-04-02T01:08:19.849Z,94736.4
2023-04-02T01:09:21.951Z,94735.6
2023-04-02T01:10:24.348Z,94739.2
2023-04-02T01:11:26.542Z,94735.6
2023-04-02T01:12:28.423Z,94740.4
2023-04-02T01:13:30.320Z,94732.8
2023-04-02T01:14:32.385Z,94741.4
2023-04-02T01:15:35.830Z,94736.3
2023-04-02T01:16:38.351Z,94733.4
2023-04-02T01:17:40.596Z,94737.9
2023-04-02T01:18:42.533Z,94736
2023-04-02T01:19:44.441Z,94728.5
2023-04-02T01:20:46.691Z,94733.3
2023-04-02T01:21:48.848Z,94735.4
2023-04-02T01:22:50.776Z,94734.5
2023-04-02T01:23:52.884Z,94735.8
2023-04-02T01:24:54.988Z,94734.5
2023-04-02T01:25:57.047Z,94733.1
2023-04-02T01:26:59.082Z,94734.3
2023-04-02T01:28:01.013Z,94738.1
2023-04-02T01:29:03.103Z,94734.6
2023-04-02T01:30:05.025Z,94739.3
2023-04-02T01:31:07.437Z,94736.1
2023-04-02T01:32:09.599Z,94739
2023-04-02T01:33:11.743Z,94740
2023-04-02T01:34:13.255Z,94739.5
2023-04-02T01:35:15.368Z,94729.8
2023-04-02T01:36:17.345Z,94729
2023-04-02T01:37:19.600Z,94733.4
2023-04-02T01:38:21.707Z,94729.6
2023-04-02T01:39:23.796Z,94729
2023-04-02T01:40:25.872Z,94732
2023-04-02T01:41:27.986Z,94735.9
2023-04-02T01:42:30.054Z,94730.4
2023-04-02T01:43:31.949Z,94730.1
2023-04-02T01:44:34.019Z,94731.9
2023-04-02T01:45:37.625Z,94736
2023-04-02T01:46:39.950Z,94733.4
2023-04-02T01:47:42.353Z,94735.5
2023-04-02T01:48:44.564Z,94736.4
2023-04-02T01:49:46.443Z,94741.1
2023-04-02T01:50:48.342Z,94740.3
2023-04-02T01:51:50.222Z,94752.2
2023-04-02T01:52:52.423Z,94745
2023-04-02T01:53:54.537Z,94746
2023-04-02T01:54:56.618Z,94749.3
2023-04-02T01:55:58.710Z,94747.9
2023-04-02T01:57:00.750Z,94749.6
2023-04-02T01:58:02.648Z,94750.5
2023-04-02T01:59:04.735Z,94751.1
2023-04-02T02:00:06.883Z,94751.4
2023-04-02T02:01:09.106Z,94751.9
2023-04-02T02:02:11.288Z,94751
2023-04-02T02:03:13.385Z,94757.8
2023-04-02T02:04:15.382Z,94758.8
2023-04-02T02:05:17.448Z,94754.4
2023-04-02T02:06:19.343Z,94755.7
2023-04-02T02:07:21.229Z,94755.1
2023-04-02T02:08:23.382Z,94758.3
2023-04-02T02:09:25.553Z,94756.8
2023-04-02T02:10:27.526Z,94753.1
2023-04-02T02:11:29.428Z,94757.1
2023-04-02T02:12:31.536Z,94762.7
2023-04-02T02:13:33.445Z,94756.8
2023-04-02T02:14:35.361Z,94758.5
2023-04-02T02:15:38.209Z,94760.5
2023-04-02T02:16:40.288Z,94765.7
2023-04-02T02:17:42.434Z,94769.3
2023-04-02T02:18:44.239Z,94765
2023-04-02T02:19:46.140Z,94766.8
2023-04-02T02:20:47.835Z,94767.8
2023-04-02T02:21:49.786Z,94771.2
2023-04-02T02:22:51.913Z,94769.5
2023-04-02T02:23:54.161Z,94774.5
2023-04-02T02:24:56.260Z,94769.1
2023-04-02T02:25:58.165Z,94775.8
2023-04-02T02:27:00.058Z,94774.2
2023-04-02T02:28:02.184Z,94770
2023-04-02T02:29:04.331Z,94774.9
2023-04-02T02:30:06.038Z,94776.3
2023-04-02T02:31:07.946Z,94778.8
2023-04-02T02:32:10.327Z,94781.7
2023-04-02T02:33:12.192Z,94782.4
2023-04-02T02:34:14.069Z,94780.2
2023-04-02T02:35:15.812Z,94784.9
2023-04-02T02:36:17.992Z,94782.4
2023-04-02T02:37:19.968Z,94786.4
2023-04-02T02:38:22.093Z,94786.8
2023-04-02T02:39:24.115Z,94784.1
2023-04-02T02:40:25.905Z,94784.3
2023-04-02T02:41:27.826Z,94789.2
2023-04-02T02:42:29.904Z,94789.9
2023-04-02T02:43:31.815Z,94788.3
2023-04-02T02:44:33.749Z,94788
2023-04-02T02:45:37.117Z,94791.1
2023-04-02T02:46:39.725Z,94794.6
2023-04-02T02:47:41.823Z,94789.7
2023-04-02T02:48:43.969Z,94791.1
2023-04-02T02:49:46.258Z,94793.5
2023-04-02T02:50:48.377Z,94796.1
2023-04-02T02:51:50.550Z,94795.9
2023-04-02T02:52:52.628Z,94797.4
2023-04-02T02:53:54.723Z,94793
2023-04-02T02:54:56.906Z,94800.3
2023-04-02T02:55:59.021Z,94802.8
2023-04-02T02:57:01.129Z,94800
2023-04-02T02:58:03.252Z,94801.2
2023-04-02T02:59:05.130Z,94807.3
2023-04-02T03:00:07.064Z,94803.4
2023-04-02T03:01:09.410Z,94801.5
2023-04-02T03:02:11.737Z,94803.9
2023-04-02T03:03:14.525Z,94806.5
2023-04-02T03:04:17.119Z,94807.9
2023-04-02T03:05:19.422Z,94801.8
2023-04-02T03:06:21.759Z,94809.2
2023-04-02T03:07:23.845Z,94808.3
2023-04-02T03:08:25.742Z,94808.8
2023-04-02T03:09:27.434Z,94812.2
2023-04-02T03:10:29.406Z,94813.2
2023-04-02T03:11:31.406Z,94809.6
2023-04-02T03:12:33.306Z,94815.1
2023-04-02T03:13:34.740Z,94812.1
2023-04-02T03:14:36.683Z,94813.7
2023-04-02T03:15:39.694Z,94817
2023-04-02T03:16:41.429Z,94814.3
2023-04-02T03:17:43.725Z,94817.6
2023-04-02T03:18:45.684Z,94817.9
2023-04-02T03:19:47.599Z,94817.1
2023-04-02T03:20:49.517Z,94818.3
2023-04-02T03:21:51.664Z,94815.2
2023-04-02T03:22:53.442Z,94817.3
2023-04-02T03:23:55.528Z,94818.4
2023-04-02T03:24:57.628Z,94819.3
2023-04-02T03:25:59.782Z,94820.2
2023-04-02T03:27:01.918Z,94820.7
2023-04-02T03:28:03.907Z,94825.2
2023-04-02T03:29:06.068Z,94814.5
2023-04-02T03:30:07.966Z,94822.4
2023-04-02T03:31:10.087Z,94828.3
2023-04-02T03:32:12.160Z,94822.9
2023-04-02T03:33:14.263Z,94823.4
2023-04-02T03:34:16.154Z,94824.2
2023-04-02T03:35:18.248Z,94825.8
2023-04-02T03:36:20.538Z,94831
2023-04-02T03:37:22.802Z,94830.4
2023-04-02T03:38:24.886Z,94831
2023-04-02T03:39:26.821Z,94833.2
2023-04-02T03:40:28.730Z,94833.9
2023-04-02T03:41:30.936Z,94831.2
2023-04-02T03:42:33.020Z,94834.6
2023-04-02T03:43:34.737Z,94837.8
2023-04-02T03:44:36.644Z,94839.9
2023-04-02T03:45:38.830Z,94842.8
2023-04-02T03:46:41.042Z,94840.4
2023-04-02T03:47:43.255Z,94840
2023-04-02T03:48:45.194Z,94840.5
2023-04-02T03:49:47.298Z,94840.1
2023-04-02T03:50:49.169Z,94845
2023-04-02T03:51:51.263Z,94843.5
2023-04-02T03:52:53.378Z,94851.9
2023-04-02T03:53:55.251Z,94844.3
2023-04-02T03:54:57.182Z,94849.8
2023-04-02T03:55:59.085Z,94850.5
2023-04-02T03:57:01.368Z,94847.5
2023-04-02T03:58:03.662Z,94848.3
2023-04-02T03:59:05.762Z,94851.5
2023-04-02T04:00:07.685Z,94853.8
2023-04-02T04:01:09.837Z,94854.1
2023-04-02T04:02:11.825Z,94855.2
2023-04-02T04:03:14.212Z,94853.8
2023-04-02T04:04:16.436Z,94860.7
2023-04-02T04:05:18.752Z,94858.9
2023-04-02T04:06:22.214Z,94862
2023-04-02T04:07:24.300Z,94862.6
2023-04-02T04:08:26.406Z,94863.3
2023-04-02T04:09:28.554Z,94864.4
2023-04-02T04:10:30.642Z,94864.1
2023-04-02T04:11:32.518Z,94863.3
2023-04-02T04:12:34.668Z,94865.4
2023-04-02T04:13:36.618Z,94865.5
2023-04-02T04:14:38.695Z,94862.1
2023-04-02T04:15:40.623Z,94864.1
2023-04-02T04:16:42.494Z,94865.5
2023-04-02T04:17:44.811Z,94861.1
2023-04-02T04:18:46.957Z,94859.3
2023-04-02T04:19:49.026Z,94863.8
2023-04-02T04:20:50.931Z,94867.4
2023-04-02T04:21:53.034Z,94865.9
2023-04-02T04:22:55.131Z,94867.4
2023-04-02T04:23:57.262Z,94870
2023-04-02T04:24:59.327Z,94873
2023-04-02T04:26:01.399Z,94871.5
2023-04-02T04:27:03.288Z,94874.2
2023-04-02T04:28:05.720Z,94869.7
2023-04-02T04:29:07.966Z,94879.8
2023-04-02T04:30:09.828Z,94877.1
2023-04-02T04:31:11.701Z,94877.7
2023-04-02T04:32:14.216Z,94877.1
2023-04-02T04:33:16.563Z,94884.6
2023-04-02T04:34:18.674Z,94883.4
2023-04-02T04:35:20.554Z,94886
2023-04-02T04:36:22.055Z,94884
2023-04-02T04:37:23.751Z,94887.5
2023-04-02T04:38:25.460Z,94886.5
2023-04-02T04:39:27.410Z,94892.2
2023-04-02T04:40:29.338Z,94892.2
2023-04-02T04:41:31.423Z,94891
2023-04-02T04:42:33.542Z,94890
2023-04-02T04:43:35.710Z,94890.2
2023-04-02T04:44:37.811Z,94892.2
2023-04-02T04:45:39.799Z,94893.9
2023-04-02T04:46:41.966Z,94891.8
2023-04-02T04:47:44.172Z,94894.9
2023-04-02T04:48:46.478Z,94893.4
2023-04-02T04:49:48.624Z,94894.8
2023-04-02T04:50:50.747Z,94898.6
2023-04-02T04:51:52.676Z,94896.5
2023-04-02T04:52:54.568Z,94896.7
2023-04-02T04:53:56.533Z,94899.8
2023-04-02T04:54:58.252Z,94900.9
2023-04-02T04:57:05.459Z,94903.4
2023-04-02T04:58:07.639Z,94896.1
2023-04-02T04:59:09.846Z,94901.6
2023-04-02T05:00:11.982Z,94900.8
2023-04-02T05:01:13.844Z,94898.5
2023-04-02T05:02:15.816Z,94911.5
2023-04-02T05:03:17.992Z,94905.9
2023-04-02T05:04:20.303Z,94909.6
2023-04-02T05:05:22.600Z,94908.7
2023-04-02T05:06:24.774Z,94914.7
2023-04-02T05:07:26.685Z,94910
2023-04-02T05:08:28.780Z,94913.4
2023-04-02T05:09:30.943Z,94916.3
2023-04-02T05:10:33.090Z,94922
2023-04-02T05:11:34.973Z,94916.5
2023-04-02T05:12:37.085Z,94919.3
2023-04-02T05:13:39.237Z,94920.9
2023-04-02T05:14:41.464Z,94921.8
2023-04-02T05:15:43.806Z,94925.3
2023-04-02T05:16:45.946Z,94930.6
2023-04-02T05:17:48.276Z,94933.5
2023-04-02T05:18:50.569Z,94935.3
2023-04-02T05:19:52.699Z,94934.5
2023-04-02T05:20:54.835Z,94936.9
2023-04-02T05:21:56.965Z,94942.8
2023-04-02T05:22:59.074Z,94939.6
2023-04-02T05:24:00.770Z,94937.8
2023-04-02T05:25:02.672Z,94942.5
2023-04-02T05:26:04.618Z,94941.5
2023-04-02T05:27:06.589Z,94942.8
2023-04-02T05:28:08.530Z,94941.5
2023-04-02T05:29:10.413Z,94943.5
2023-04-02T05:30:12.461Z,94939.6
2023-04-02T05:31:14.754Z,94941.9
2023-04-02T05:32:16.597Z,94943.4
2023-04-02T05:33:18.719Z,94940.7
2023-04-02T05:34:20.813Z,94943.5
2023-04-02T05:35:22.939Z,94949.4
2023-04-02T05:36:25.231Z,94944.8
2023-04-02T05:37:27.360Z,94951.1
2023-04-02T05:38:29.434Z,94953.5
2023-04-02T05:39:31.332Z,94952.4
2023-04-02T05:40:33.803Z,94961.5
2023-04-02T05:41:36.254Z,94958.1
2023-04-02T05:42:38.284Z,94957.2
2023-04-02T05:43:40.195Z,94959.5
2023-04-02T05:44:42.091Z,94959.4
2023-04-02T05:45:44.104Z,94957.3
2023-04-02T05:46:46.399Z,94960.6
2023-04-02T05:47:48.724Z,94957.3
2023-04-02T05:48:50.733Z,94961.6
2023-04-02T05:49:52.906Z,94961.8
2023-04-02T05:50:55.032Z,94968.6
2023-04-02T05:51:58.818Z,94968.7
2023-04-02T05:53:00.941Z,94969.5
2023-04-02T05:54:02.891Z,94971
2023-04-02T05:55:05.015Z,94973.4
2023-04-02T05:56:07.001Z,94973
2023-04-02T05:57:09.273Z,94977.1
2023-04-02T05:59:16.551Z,94982
2023-04-02T06:00:18.680Z,94982.1
2023-04-02T06:01:20.684Z,94981.7
2023-04-02T06:02:23.106Z,94983
2023-04-02T06:03:25.993Z,94985
2023-04-02T06:04:28.196Z,94984.6
2023-04-02T06:05:30.172Z,94982.8
2023-04-02T06:06:32.071Z,94981.9
2023-04-02T06:07:34.198Z,94988
2023-04-02T06:08:36.360Z,94985.3
2023-04-02T06:09:38.553Z,94981.7
2023-04-02T06:10:40.652Z,94984
2023-04-02T06:11:42.368Z,94988.1
2023-04-02T06:12:44.561Z,94984.9
2023-04-02T06:13:46.698Z,94992.3
2023-04-02T06:14:48.809Z,94991.1
2023-04-02T06:15:50.765Z,94990.5
2023-04-02T06:16:53.108Z,94993.2
2023-04-02T06:17:55.657Z,94992.1
2023-04-02T06:18:57.888Z,94992.5
2023-04-02T06:20:00.044Z,94995.1
2023-04-02T06:21:01.993Z,94994
2023-04-02T06:22:03.906Z,94988.4
2023-04-02T06:23:06.031Z,94990.1
2023-04-02T06:24:08.214Z,94993.1
2023-04-02T06:25:10.428Z,94997.5
2023-04-02T06:26:12.556Z,94999.1
2023-04-02T06:27:14.684Z,94994.1
2023-04-02T06:28:16.876Z,94999.1
2023-04-02T06:29:19.012Z,94995.7
2023-04-02T06:30:21.189Z,94998.3
2023-04-02T06:31:23.427Z,95001.6
2023-04-02T06:32:25.872Z,95001
2023-04-02T06:33:28.088Z,95006.8
2023-04-02T06:34:29.852Z,95004.3
2023-04-02T06:35:31.789Z,95009.9
2023-04-02T06:36:33.917Z,95004.5
2023-04-02T06:37:35.844Z,95004.5
2023-04-02T06:38:37.989Z,95007.7
2023-04-02T06:39:39.930Z,95006.4
2023-04-02T06:40:42.038Z,95009.8
2023-04-02T06:41:43.764Z,95004
2023-04-02T06:42:45.908Z,95018.6
2023-04-02T06:43:48.045Z,95014.8
2023-04-02T06:44:50.188Z,95012.8
2023-04-02T06:45:52.449Z,95017.8
2023-04-02T06:46:54.727Z,95018.1
2023-04-02T06:47:57.075Z,95024.9
2023-04-02T06:48:59.119Z,95021.5
2023-04-02T06:50:01.229Z,95025.6
2023-04-02T06:51:03.270Z,95028.4
2023-04-02T06:52:05.423Z,95029
2023-04-02T06:53:07.549Z,95031.6
2023-04-02T06:54:09.470Z,95037.4
2023-04-02T06:55:11.144Z,95033.8
2023-04-02T06:56:13.438Z,95036.9
2023-04-02T06:57:15.797Z,95039.8
2023-04-02T06:58:17.986Z,95037.7
2023-04-02T06:59:20.256Z,95035.1
2023-04-02T07:00:22.375Z,95042.1
2023-04-02T07:01:24.437Z,95043.6
2023-04-02T07:02:26.817Z,95042.7
2023-04-02T07:03:29.112Z,95042.8
2023-04-02T07:04:31.395Z,95047.4
2023-04-02T07:05:34.296Z,95046.2
2023-04-02T07:06:36.671Z,95047.8
2023-04-02T07:07:38.591Z,95053
2023-04-02T07:08:40.539Z,95055.2
2023-04-02T07:09:42.337Z,95050.1
2023-04-02T07:10:44.542Z,95053.3
2023-04-02T07:11:46.653Z,95057.8
2023-04-02T07:12:48.820Z,95052.8
2023-04-02T07:13:50.789Z,95056.8
2023-04-02T07:14:52.943Z,95058.8
2023-04-02T07:15:55.858Z,95059.6
2023-04-02T07:16:58.787Z,95059.6
2023-04-02T07:18:00.916Z,95056.5
2023-04-02T07:19:03.223Z,95054.9
2023-04-02T07:20:05.373Z,95060.6
2023-04-02T07:21:07.478Z,95056.5
2023-04-02T07:22:09.617Z,95058.4
2023-04-02T07:23:11.725Z,95068.9
2023-04-02T07:24:13.858Z,95065.2
2023-04-02T07:25:15.985Z,95065.4
2023-04-02T07:26:18.120Z,95063
2023-04-02T07:27:20.010Z,95067.4
2023-04-02T07:28:24.188Z,95065.6
2023-04-02T07:29:26.123Z,95069.3
2023-04-02T07:30:28.256Z,95071.9
2023-04-02T07:31:30.571Z,95067.4
2023-04-02T07:32:33.069Z,95072.8
2023-04-02T07:33:35.202Z,95067.3
2023-04-02T07:34:37.484Z,95073.6
2023-04-02T07:35:40.073Z,95074.2
2023-04-02T07:36:42.278Z,95069.6
2023-04-02T07:37:44.385Z,95074.6
2023-04-02T07:38:46.642Z,95074.1
2023-04-02T07:39:48.740Z,95073.4
2023-04-02T07:40:50.661Z,95078.7
2023-04-02T07:41:52.800Z,95081.3
2023-04-02T07:42:54.915Z,95083.7
2023-04-02T07:43:56.906Z,95084.4
2023-04-02T07:44:59.057Z,95082.9
2023-04-02T07:46:01.170Z,95086.5
2023-04-02T07:47:03.585Z,95081.3
2023-04-02T07:48:06.044Z,95085.7
2023-04-02T07:49:08.374Z,95087.6
2023-04-02T07:50:10.615Z,95084.7
2023-04-02T07:51:12.577Z,95092.9
2023-04-02T07:52:14.454Z,95093.9
2023-04-02T07:53:16.551Z,95090.4
2023-04-02T07:54:18.688Z,95088.7
2023-04-02T07:55:20.815Z,95094.2
2023-04-02T07:56:22.899Z,95096
2023-04-02T07:57:25.005Z,95097.4
2023-04-02T07:58:26.971Z,95098.9
2023-04-02T07:59:29.128Z,95099.4
2023-04-02T08:00:31.348Z,95103.5
2023-04-02T08:01:33.532Z,95104.3
2023-04-02T08:02:35.866Z,95105.7
2023-04-02T08:03:38.674Z,95104.5
2023-04-02T08:04:41.028Z,95107
2023-04-02T08:05:43.308Z,95104.8
2023-04-02T08:06:45.554Z,95108.5
2023-04-02T08:07:52.576Z,95110
2023-04-02T08:08:54.522Z,95113.4
2023-04-02T08:09:56.629Z,95109.8
2023-04-02T08:10:58.727Z,95111.3
2023-04-02T08:12:00.887Z,95110.3
2023-04-02T08:13:03.023Z,95112.9
2023-04-02T08:14:05.122Z,95113.7
2023-04-02T08:15:07.080Z,95115.7
2023-04-02T08:16:09.182Z,95113.3
2023-04-02T08:17:11.326Z,95114.1
2023-04-02T08:18:13.281Z,95119.6
2023-04-02T08:19:15.220Z,95118.9
2023-04-02T08:20:17.381Z,95124.7
2023-04-02T08:21:19.611Z,95119.7
2023-04-02T08:22:21.783Z,95125.5
2023-04-02T08:23:23.726Z,95120.8
2023-04-02T08:24:25.641Z,95131.7
2023-04-02T08:25:27.836Z,95124
2023-04-02T08:26:29.994Z,95129.6
2023-04-02T08:27:32.098Z,95125
2023-04-02T08:28:34.224Z,95132
2023-04-02T08:29:36.357Z,95132.8
2023-04-02T08:30:38.407Z,95131.1
2023-04-02T08:31:40.608Z,95126.2
2023-04-02T08:32:42.568Z,95136.7
2023-04-02T08:33:44.759Z,95132
2023-04-02T08:34:46.886Z,95138
2023-04-02T08:35:49.239Z,95133.9
2023-04-02T08:36:51.496Z,95131.1
2023-04-02T08:37:53.641Z,95137.5
2023-04-02T08:38:55.742Z,95134.8
2023-04-02T08:39:57.478Z,95138.5
2023-04-02T08:40:59.594Z,95136.5
2023-04-02T08:42:01.824Z,95135.8
2023-04-02T08:43:03.942Z,95131.8
2023-04-02T08:44:05.837Z,95133.2
2023-04-02T08:46:13.275Z,95139.8
2023-04-02T08:47:15.251Z,95142.2
2023-04-02T08:48:17.417Z,95143.2
2023-04-02T08:49:19.557Z,95142.4
2023-04-02T08:50:21.681Z,95141.9
2023-04-02T08:51:23.806Z,95141.2
2023-04-02T08:52:26.076Z,95149.1
2023-04-02T08:53:28.454Z,95148
2023-04-02T08:54:30.937Z,95148.3
2023-04-02T08:55:33.443Z,95147.5
2023-04-02T08:56:35.691Z,95150.4
2023-04-02T08:57:37.603Z,95151.5
2023-04-02T08:58:39.569Z,95152.2
2023-04-02T08:59:41.728Z,95152.5
2023-04-02T09:00:43.830Z,95151.4
2023-04-02T09:01:46.033Z,95152
2023-04-02T09:02:48.409Z,95148.5
2023-04-02T09:03:50.757Z,95154.4
2023-04-02T09:04:53.129Z,95156.1
2023-04-02T09:05:55.336Z,95152.5
2023-04-02T09:06:57.461Z,95161.4
2023-04-02T09:07:59.643Z,95160
2023-04-02T09:09:01.813Z,95158.9
2023-04-02T09:10:03.716Z,95156.3
2023-04-02T09:11:05.829Z,95157.7
2023-04-02T09:12:07.986Z,95157.5
2023-04-02T09:13:10.082Z,95157
2023-04-02T09:14:12.295Z,95155.9
2023-04-02T09:15:14.568Z,95164.3
2023-04-02T09:16:16.666Z,95160.4
2023-04-02T09:17:18.877Z,95161.2
2023-04-02T09:18:20.772Z,95166.8
2023-04-02T09:19:23.306Z,95165
2023-04-02T09:20:25.621Z,95166
2023-04-02T09:21:27.729Z,95165.1
2023-04-02T09:22:29.745Z,95171
2023-04-02T09:23:31.776Z,95167.3
2023-04-02T09:24:34.047Z,95166
2023-04-02T09:25:37.171Z,95173.4
2023-04-02T09:26:39.515Z,95173
2023-04-02T09:27:41.605Z,95171.6
2023-04-02T09:28:43.310Z,95177.6
2023-04-02T09:29:45.246Z,95173
2023-04-02T09:30:47.359Z,95178.8
2023-04-02T09:31:49.345Z,95181
2023-04-02T09:32:51.595Z,95176.2
2023-04-02T09:33:53.232Z,95182.1
2023-04-02T09:34:55.344Z,95183.3
2023-04-02T09:35:57.418Z,95180
2023-04-02T09:36:59.569Z,95181.8
2023-04-02T09:38:01.696Z,95179.5
2023-04-02T09:39:03.935Z,95179.9
2023-04-02T09:40:06.026Z,95183
2023-04-02T09:41:08.188Z,95186
2023-04-02T09:42:10.260Z,95184.7
2023-04-02T09:43:11.990Z,95192
2023-04-02T09:44:14.133Z,95188.8
2023-04-02T09:45:15.850Z,95189.3
2023-04-02T09:46:18.042Z,95189.6
2023-04-02T09:47:19.991Z,95186.5
2023-04-02T09:48:22.063Z,95189.3
2023-04-02T09:49:24.181Z,95186.7
2023-04-02T09:50:26.326Z,95189.4
2023-04-02T09:51:28.450Z,95191.4
2023-04-02T09:52:30.556Z,95188
2023-04-02T09:53:32.277Z,95189.8
2023-04-02T09:54:34.437Z,95185.2
2023-04-02T09:55:37.594Z,95191.7
2023-04-02T09:56:39.761Z,95191.1
2023-04-02T09:57:41.468Z,95193.8
2023-04-02T09:58:43.362Z,95191.1
2023-04-02T09:59:45.291Z,95193.1
2023-04-02T10:00:48.480Z,95191.3
2023-04-02T10:01:50.430Z,95192.8
2023-04-02T10:02:52.721Z,95190.9
2023-04-02T10:03:54.977Z,95199
2023-04-02T10:04:57.194Z,95195.6
2023-04-02T10:05:59.145Z,95198
2023-04-02T10:07:01.286Z,95193.1
2023-04-02T10:08:03.244Z,95198.1
2023-04-02T10:09:05.332Z,95200.3
2023-04-02T10:10:07.614Z,95195.8
2023-04-02T10:11:09.739Z,95195.3
2023-04-02T10:12:11.827Z,95195.7
2023-04-02T10:13:13.732Z,95190
2023-04-02T10:14:15.825Z,95191.6
2023-04-02T10:15:17.698Z,95191.9
2023-04-02T10:16:20.113Z,95198.2
2023-04-02T10:17:22.102Z,95197.2
2023-04-02T10:18:24.389Z,95197.7
2023-04-02T10:19:26.319Z,95203
2023-04-02T10:20:30.495Z,95198.5
2023-04-02T10:21:35.216Z,95196.4
2023-04-02T10:22:37.136Z,95198.5
2023-04-02T10:23:39.281Z,95203.8
2023-04-02T10:24:41.398Z,95196.2
2023-04-02T10:25:43.580Z,95197.5
2023-04-02T10:26:45.535Z,95209.4
2023-04-02T10:27:47.627Z,95204.3
2023-04-02T10:28:49.735Z,95202.4
2023-04-02T10:29:51.837Z,95201.6
2023-04-02T10:30:54.140Z,95198.5
2023-04-02T10:31:56.106Z,95199.9
2023-04-02T10:32:58.250Z,95201.5
2023-04-02T10:34:00.425Z,95195.9
2023-04-02T10:35:02.550Z,95195.7
2023-04-02T10:36:04.643Z,95197.4
2023-04-02T10:37:07.123Z,95196.2
2023-04-02T10:38:09.486Z,95198.5
2023-04-02T10:39:11.598Z,95196.9
2023-04-02T10:40:13.733Z,95196.2
2023-04-02T10:41:15.954Z,95191.7
2023-04-02T10:42:18.116Z,95193.8
2023-04-02T10:43:20.005Z,95192.5
2023-04-02T10:44:22.254Z,95194.4
2023-04-02T10:45:24.375Z,95195.9
2023-04-02T10:46:27.074Z,95202.2
2023-04-02T10:47:29.279Z,95197.2
2023-04-02T10:48:31.265Z,95197.7
2023-04-02T10:49:33.526Z,95198.5
2023-04-02T10:50:35.562Z,95203.7
2023-04-02T10:51:37.748Z,95199.6
2023-04-02T10:52:39.881Z,95198.5
2023-04-02T10:53:42.030Z,95205.6
2023-04-02T10:54:44.159Z,95197.2
2023-04-02T10:55:46.306Z,95208.2
2023-04-02T10:57:53.528Z,95212.1
2023-04-02T11:00:00.885Z,95220
2023-04-02T11:01:02.881Z,95219.8
2023-04-02T11:02:04.889Z,95217.3
2023-04-02T11:03:07.509Z,95213.8
2023-04-02T11:04:09.860Z,95220.9
2023-04-02T11:05:12.149Z,95214.7
2023-04-02T11:06:14.410Z,95217.3
2023-04-02T11:07:16.500Z,95219
2023-04-02T11:08:18.447Z,95214.1
2023-04-02T11:09:19.974Z,95220.7
2023-04-02T11:10:22.145Z,95218.1
2023-04-02T11:11:24.042Z,95222.5
2023-04-02T11:12:26.173Z,95220.5
2023-04-02T11:13:28.377Z,95219.5
2023-04-02T11:14:30.334Z,95219.5
2023-04-02T11:15:32.427Z,95218.1
2023-04-02T11:17:42.834Z,95230.4
2023-04-02T11:18:45.077Z,95228.4
2023-04-02T11:19:47.031Z,95227.5
2023-04-02T11:20:49.154Z,95231.8
2023-04-02T11:22:56.215Z,95236.4
2023-04-02T11:23:58.448Z,95236.7
2023-04-02T11:25:00.621Z,95239.5
2023-04-02T11:26:02.331Z,95246.6
2023-04-02T11:27:04.043Z,95240.9
2023-04-02T11:28:06.181Z,95239.7
2023-04-02T11:29:07.952Z,95236.3
2023-04-02T11:30:10.181Z,95236.9
2023-04-02T11:31:12.578Z,95240.6
2023-04-02T11:32:14.506Z,95239.6
2023-04-02T11:34:21.623Z,95241.2
2023-04-02T11:35:23.706Z,95242.8
2023-04-02T11:36:25.933Z,95241.8
2023-04-02T11:37:27.819Z,95247.5
2023-04-02T11:38:29.749Z,95240
2023-04-02T11:39:31.663Z,95240
2023-04-02T11:40:33.764Z,95240.5
2023-04-02T11:41:35.629Z,95244.3
2023-04-02T11:42:37.821Z,95245
2023-04-02T11:43:39.367Z,95244.7
2023-04-02T11:44:41.513Z,95244
2023-04-02T11:46:48.771Z,95244
2023-04-02T11:47:51.341Z,95242.8
2023-04-02T11:48:54.050Z,95239.9
2023-04-02T11:49:56.530Z,95246.3
2023-04-02T11:50:59.198Z,95244.1
2023-04-02T11:53:06.381Z,95246.7
2023-04-02T11:54:08.520Z,95242.9
2023-04-02T11:55:10.475Z,95248.4
2023-04-02T11:56:12.391Z,95251.3
2023-04-02T11:57:14.709Z,95254.3
2023-04-02T11:58:16.656Z,95249.7
2023-04-02T11:59:18.848Z,95250
2023-04-02T12:00:20.858Z,95249.4
2023-04-02T12:01:22.870Z,95252.3
2023-04-02T12:02:25.334Z,95250.6
2023-04-02T12:03:27.654Z,95253.1
2023-04-02T12:04:29.349Z,95250.6
2023-04-02T12:05:31.275Z,95253.2
2023-04-02T12:06:33.391Z,95249.3
2023-04-02T12:07:35.658Z,95255.3
2023-04-02T12:09:42.554Z,95256.4
2023-04-02T12:10:44.500Z,95258.1
2023-04-02T12:11:46.457Z,95254.5
2023-04-02T12:12:48.585Z,95257.4
2023-04-02T12:13:50.722Z,95256.4
2023-04-02T12:14:52.664Z,95258.6
2023-04-02T12:15:54.960Z,95258.9
2023-04-02T12:16:57.438Z,95255.3
2023-04-02T12:17:59.734Z,95256.8
2023-04-02T12:19:01.519Z,95260.1
2023-04-02T12:21:08.409Z,95256.8
2023-04-02T12:22:10.108Z,95262.6
2023-04-02T12:23:12.216Z,95263.8
2023-04-02T12:24:13.936Z,95262.7
2023-04-02T12:25:16.040Z,95260.1
2023-04-02T12:26:17.967Z,95259.1
2023-04-02T12:27:19.877Z,95270.3
2023-04-02T12:28:22.014Z,95263.9
2023-04-02T12:29:23.894Z,95260.8
2023-04-02T12:30:25.783Z,95263.9
2023-04-02T12:31:28.380Z,95269.7
2023-04-02T12:32:31.757Z,95267.1
2023-04-02T12:33:34.033Z,95262.3
2023-04-02T12:34:36.224Z,95269.5
2023-04-02T12:35:38.247Z,95265.2
2023-04-02T12:36:40.267Z,95273.8
2023-04-02T12:37:42.205Z,95266.7
2023-04-02T12:38:44.295Z,95269.4
2023-04-02T12:39:46.420Z,95269.6
2023-04-02T12:40:48.530Z,95268.2
2023-04-02T12:41:50.499Z,95270.7
2023-04-02T12:42:52.627Z,95274.9
2023-04-02T12:43:54.505Z,95278.6
2023-04-02T12:44:56.595Z,95276.7
2023-04-02T12:45:58.465Z,95274.7
2023-04-02T12:47:00.595Z,95274.7
2023-04-02T12:48:02.813Z,95274.4
2023-04-02T12:49:05.055Z,95272.4
2023-04-02T12:50:07.278Z,95269.8
2023-04-02T12:51:09.425Z,95272.5